createdAt,value
2022-11-20T00:01:26.118Z,13.65
2022-11-20T00:03:55.203Z,14.50
2022-11-20T00:06:23.389Z,11.98
2022-11-20T00:08:51.020Z,13.02
2022-11-20T00:11:21.073Z,12.70
2022-11-20T00:13:51.959Z,13.73
2022-11-20T00:16:23.028Z,13.35
2022-11-20T00:18:50.274Z,13.30
2022-11-20T00:21:27.282Z,13.63
2022-11-20T00:23:56.599Z,12.70
2022-11-20T00:26:25.902Z,13.48
2022-11-20T00:28:56.391Z,13.55
2022-11-20T00:31:23.909Z,13.60
2022-11-20T00:33:50.945Z,11.70
2022-11-20T00:36:23.869Z,13.40
2022-11-20T00:38:55.989Z,12.60
2022-11-20T00:41:23.838Z,12.02
2022-11-20T00:43:53.369Z,12.13
2022-11-20T00:46:23.257Z,12.77
2022-11-20T00:48:50.092Z,12.10
2022-11-20T00:51:19.868Z,11.63
2022-11-20T00:53:47.316Z,12.35
2022-11-20T00:56:17.114Z,12.38
2022-11-20T00:58:47.271Z,13.18
2022-11-20T01:01:27.107Z,11.45
2022-11-20T01:03:57.132Z,11.35
2022-11-20T01:06:36.531Z,10.88
2022-11-20T01:09:08.667Z,11.18
2022-11-20T01:11:38.956Z,11.27
2022-11-20T01:14:10.490Z,10.57
2022-11-20T01:16:47.629Z,12.18
2022-11-20T01:19:22.315Z,12.18
2022-11-20T01:21:53.699Z,11.70
2022-11-20T01:24:22.694Z,10.77
2022-11-20T01:26:51.799Z,10.35
2022-11-20T01:29:25.229Z,11.40
2022-11-20T01:31:53.385Z,10.82
2022-11-20T01:34:23.055Z,11.15
2022-11-20T01:36:50.843Z,10.50
2022-11-20T01:39:22.498Z,10.63
2022-11-20T01:42:10.272Z,11.10
2022-11-20T01:44:57.373Z,11.05
2022-11-20T01:47:39.499Z,10.68
2022-11-20T01:50:24.195Z,10.32
2022-11-20T01:53:01.937Z,10.95
2022-11-20T01:55:41.121Z,10.25
2022-11-20T01:58:08.019Z,10.32
2022-11-20T02:00:34.893Z,10.55
2022-11-20T02:03:14.453Z,9.25
2022-11-20T02:06:08.671Z,9.55
2022-11-20T02:08:37.631Z,10.95
2022-11-20T02:11:04.438Z,10.63
2022-11-20T02:13:46.257Z,10.25
2022-11-20T02:16:18.967Z,10.20
2022-11-20T02:18:46.865Z,10.88
2022-11-20T02:21:35.923Z,11.80
2022-11-20T02:24:13.977Z,11.63
2022-11-20T02:26:53.282Z,10.68
2022-11-20T02:29:36.633Z,11.25
2022-11-20T02:32:04.038Z,10.23
2022-11-20T02:34:31.074Z,11.20
2022-11-20T02:37:00.079Z,11.60
2022-11-20T02:39:28.678Z,10.52
2022-11-20T02:41:56.898Z,10.57
2022-11-20T02:44:23.672Z,11.27
2022-11-20T02:46:50.446Z,11.30
2022-11-20T02:49:17.898Z,11.52
2022-11-20T02:51:44.953Z,10.05
2022-11-20T02:54:11.830Z,10.85
2022-11-20T02:56:40.285Z,10.52
2022-11-20T02:59:07.951Z,10.63
2022-11-20T03:01:35.026Z,10.10
2022-11-20T03:04:01.915Z,9.50
2022-11-20T03:06:28.724Z,11.27
2022-11-20T03:08:55.612Z,10.48
2022-11-20T03:11:22.509Z,10.07
2022-11-20T03:13:49.310Z,10.48
2022-11-20T03:16:20.449Z,9.80
2022-11-20T03:18:47.938Z,10.23
2022-11-20T03:21:16.299Z,11.07
2022-11-20T03:23:43.115Z,10.52
2022-11-20T03:26:20.806Z,10.60
2022-11-20T03:28:53.694Z,11.38
2022-11-20T03:31:24.551Z,10.52
2022-11-20T03:33:52.040Z,10.23
2022-11-20T03:36:21.083Z,10.10
2022-11-20T03:38:48.756Z,10.55
2022-11-20T03:41:22.447Z,9.90
2022-11-20T03:43:55.063Z,10.90
2022-11-20T03:46:22.703Z,9.98
2022-11-20T03:48:52.072Z,10.95
2022-11-20T03:51:28.693Z,10.63
2022-11-20T03:53:58.221Z,11.05
2022-11-20T03:56:31.842Z,11.00
2022-11-20T03:58:59.415Z,10.77
2022-11-20T04:01:30.804Z,10.15
2022-11-20T04:03:58.427Z,10.15
2022-11-20T04:06:31.627Z,9.77
2022-11-20T04:08:59.250Z,10.43
2022-11-20T04:11:30.031Z,10.90
2022-11-20T04:14:00.785Z,10.75
2022-11-20T04:16:31.314Z,10.20
2022-11-20T04:19:01.661Z,11.15
2022-11-20T04:21:28.709Z,9.70
2022-11-20T04:23:56.312Z,10.88
2022-11-20T04:26:25.784Z,10.75
2022-11-20T04:28:52.547Z,10.82
2022-11-20T04:31:23.958Z,10.77
2022-11-20T04:33:50.974Z,10.40
2022-11-20T04:36:24.781Z,11.32
2022-11-20T04:38:57.576Z,9.48
2022-11-20T04:41:31.798Z,10.30
2022-11-20T04:44:03.284Z,10.55
2022-11-20T04:46:32.844Z,10.65
2022-11-20T04:49:00.674Z,10.65
2022-11-20T04:51:28.111Z,10.88
2022-11-20T04:53:55.010Z,10.55
2022-11-20T04:56:21.767Z,10.48
2022-11-20T04:58:48.575Z,10.90
2022-11-20T05:01:23.272Z,11.43
2022-11-20T05:03:50.866Z,10.32
2022-11-20T05:06:20.797Z,10.30
2022-11-20T05:08:47.888Z,9.25
2022-11-20T05:11:18.618Z,10.07
2022-11-20T05:13:45.411Z,9.60
2022-11-20T05:16:19.864Z,10.27
2022-11-20T05:18:47.532Z,9.52
2022-11-20T05:21:15.184Z,9.75
2022-11-20T05:23:42.664Z,10.48
2022-11-20T05:26:19.614Z,10.30
2022-11-20T05:28:47.798Z,9.63
2022-11-20T05:31:27.776Z,10.32
2022-11-20T05:33:57.396Z,8.70
2022-11-20T05:36:24.273Z,10.82
2022-11-20T05:38:51.631Z,10.23
2022-11-20T05:41:21.700Z,10.18
2022-11-20T05:43:49.687Z,10.40
2022-11-20T05:46:27.732Z,10.05
2022-11-20T05:48:54.990Z,9.32
2022-11-20T05:51:21.811Z,9.52
2022-11-20T05:53:49.072Z,10.38
2022-11-20T05:56:21.376Z,10.68
2022-11-20T05:58:49.115Z,10.50
2022-11-20T06:01:24.097Z,10.02
2022-11-20T06:03:51.934Z,9.15
2022-11-20T06:06:20.395Z,9.02
2022-11-20T06:08:47.452Z,9.75
2022-11-20T06:11:15.347Z,9.35
2022-11-20T06:13:43.044Z,10.02
2022-11-20T06:16:11.864Z,10.40
2022-11-20T06:18:39.220Z,9.10
2022-11-20T06:21:14.505Z,9.38
2022-11-20T06:23:41.705Z,9.18
2022-11-20T06:26:11.664Z,9.98
2022-11-20T06:28:38.539Z,9.90
2022-11-20T06:31:06.282Z,9.73
2022-11-20T06:33:33.424Z,9.65
2022-11-20T06:36:05.903Z,10.10
2022-11-20T06:38:37.553Z,9.07
2022-11-20T06:41:09.722Z,9.68
2022-11-20T06:43:36.464Z,9.52
2022-11-20T06:46:03.399Z,8.68
2022-11-20T06:48:31.022Z,9.45
2022-11-20T06:50:58.679Z,9.50
2022-11-20T06:53:26.135Z,10.02
2022-11-20T06:55:56.726Z,8.70
2022-11-20T06:58:23.525Z,9.65
2022-11-20T07:00:50.503Z,9.43
2022-11-20T07:03:17.267Z,9.30
2022-11-20T07:05:44.705Z,9.60
2022-11-20T07:08:11.920Z,9.50
2022-11-20T07:10:38.722Z,9.10
2022-11-20T07:13:05.727Z,9.13
2022-11-20T07:15:32.471Z,9.60
2022-11-20T07:18:02.761Z,8.93
2022-11-20T07:20:29.680Z,9.55
2022-11-20T07:22:57.811Z,9.00
2022-11-20T07:25:26.472Z,9.85
2022-11-20T07:27:53.980Z,8.68
2022-11-20T07:30:20.729Z,9.07
2022-11-20T07:32:51.459Z,8.95
2022-11-20T07:35:18.495Z,9.60
2022-11-20T07:37:46.592Z,9.07
2022-11-20T07:40:14.434Z,10.15
2022-11-20T07:42:49.909Z,9.65
2022-11-20T07:45:18.256Z,9.98
2022-11-20T07:47:45.089Z,9.15
2022-11-20T07:50:12.917Z,8.93
2022-11-20T07:52:39.741Z,9.00
2022-11-20T07:55:07.740Z,9.40
2022-11-20T07:57:34.515Z,9.65
2022-11-20T08:00:01.280Z,8.60
2022-11-20T08:02:28.133Z,8.43
2022-11-20T08:04:54.887Z,8.65
2022-11-20T08:07:21.685Z,9.00
2022-11-20T08:09:48.519Z,9.18
2022-11-20T08:12:40.171Z,9.95
2022-11-20T08:15:12.880Z,8.68
2022-11-20T08:17:40.323Z,9.02
2022-11-20T08:20:07.592Z,8.48
2022-11-20T08:22:34.352Z,9.15
2022-11-20T08:25:01.152Z,9.40
2022-11-20T08:27:28.176Z,9.73
2022-11-20T08:29:55.274Z,8.68
2022-11-20T08:32:22.040Z,9.20
2022-11-20T08:34:48.842Z,9.50
2022-11-20T08:37:15.585Z,9.27
2022-11-20T08:39:42.408Z,8.27
2022-11-20T08:42:09.734Z,7.80
2022-11-20T08:44:36.508Z,8.55
2022-11-20T08:47:03.314Z,9.27
2022-11-20T08:49:30.119Z,8.02
2022-11-20T08:51:57.900Z,8.90
2022-11-20T08:54:24.693Z,9.43
2022-11-20T08:56:51.443Z,9.35
2022-11-20T08:59:36.869Z,9.15
2022-11-20T09:02:05.036Z,8.75
2022-11-20T09:04:31.795Z,10.07
2022-11-20T09:07:01.246Z,8.80
2022-11-20T09:09:28.190Z,9.30
2022-11-20T09:11:55.013Z,8.63
2022-11-20T09:14:22.283Z,9.48
2022-11-20T09:16:49.122Z,9.48
2022-11-20T09:22:02.793Z,8.93
2022-11-20T09:24:29.560Z,10.00
2022-11-20T09:26:56.399Z,9.52
2022-11-20T09:29:23.671Z,9.13
2022-11-20T09:31:50.608Z,9.35
2022-11-20T09:34:17.558Z,9.70
2022-11-20T09:36:44.322Z,8.93
2022-11-20T09:39:11.081Z,9.40
2022-11-20T09:42:03.173Z,9.63
2022-11-20T09:44:51.106Z,9.13
2022-11-20T09:47:48.401Z,9.10
2022-11-20T09:50:43.137Z,8.95
2022-11-20T09:55:40.266Z,8.25
2022-11-20T09:58:11.855Z,8.18
2022-11-20T10:00:38.954Z,9.75
2022-11-20T10:03:18.255Z,9.45
2022-11-20T10:05:48.767Z,8.52
2022-11-20T10:08:23.101Z,9.43
2022-11-20T10:11:18.041Z,9.95
2022-11-20T10:14:08.388Z,8.52
2022-11-20T10:17:30.690Z,9.05
2022-11-20T10:20:10.256Z,8.48
2022-11-20T10:22:46.616Z,7.78
2022-11-20T10:25:21.122Z,8.15
2022-11-20T10:28:17.454Z,8.10
2022-11-20T10:30:47.099Z,8.65
2022-11-20T10:33:25.140Z,9.13
2022-11-20T10:36:27.479Z,8.68
2022-11-20T10:39:00.549Z,9.25
2022-11-20T10:41:35.845Z,6.35
2022-11-20T10:44:40.385Z,8.77
2022-11-20T10:47:18.095Z,8.50
2022-11-20T10:49:49.682Z,8.52
2022-11-20T10:52:35.342Z,7.90
2022-11-20T10:55:22.525Z,8.27
2022-11-20T10:58:08.021Z,7.78
2022-11-20T11:00:35.180Z,7.90
2022-11-20T11:03:04.590Z,7.32
2022-11-20T11:05:47.571Z,8.05
2022-11-20T11:08:20.242Z,7.93
2022-11-20T11:10:58.163Z,7.70
2022-11-20T11:13:28.213Z,7.18
2022-11-20T11:15:55.998Z,7.40
2022-11-20T11:18:35.154Z,6.95
2022-11-20T11:21:05.468Z,6.53
2022-11-20T11:23:40.804Z,6.32
2022-11-20T11:26:23.449Z,6.40
2022-11-20T11:29:05.317Z,6.22
2022-11-20T11:31:35.942Z,6.78
2022-11-20T11:34:15.116Z,6.63
2022-11-20T11:36:43.367Z,6.55
2022-11-20T11:39:17.013Z,6.45
2022-11-20T11:41:44.036Z,5.72
2022-11-20T11:44:52.955Z,6.43
2022-11-20T11:47:26.489Z,5.50
2022-11-20T11:50:16.187Z,5.28
2022-11-20T11:52:54.736Z,5.90
2022-11-20T11:55:34.517Z,5.85
2022-11-20T11:58:25.725Z,8.40
2022-11-20T12:00:59.891Z,6.47
2022-11-20T12:03:36.958Z,6.13
2022-11-20T12:06:17.855Z,5.93
2022-11-20T12:09:09.929Z,6.43
2022-11-20T12:11:59.658Z,7.20
2022-11-20T12:14:38.247Z,6.60
2022-11-20T12:17:05.914Z,6.47
2022-11-20T12:19:35.788Z,7.20
2022-11-20T12:22:40.835Z,6.90
2022-11-20T12:28:26.121Z,6.60
2022-11-20T12:31:16.725Z,6.50
2022-11-20T12:34:00.034Z,6.47
2022-11-20T12:37:04.894Z,6.90
2022-11-20T12:39:43.566Z,7.30
2022-11-20T12:42:44.413Z,7.35
2022-11-20T12:45:28.119Z,7.10
2022-11-20T12:48:16.807Z,6.57
2022-11-20T12:51:15.475Z,7.43
2022-11-20T12:57:15.723Z,4.78
2022-11-20T12:59:51.786Z,8.07
2022-11-20T13:02:37.746Z,8.13
2022-11-20T13:05:33.363Z,7.50
2022-11-20T13:08:03.303Z,7.47
2022-11-20T13:10:46.632Z,8.57
2022-11-20T13:13:31.237Z,8.40
2022-11-20T13:16:14.522Z,7.57
2022-11-20T13:18:43.555Z,7.18
2022-11-20T13:21:39.657Z,7.78
2022-11-20T13:24:24.274Z,7.05
2022-11-20T13:27:22.118Z,7.72
2022-11-20T13:30:02.470Z,7.15
2022-11-20T13:32:32.975Z,8.02
2022-11-20T13:35:05.624Z,7.93
2022-11-20T13:37:38.212Z,8.07
2022-11-20T13:40:13.687Z,7.57
2022-11-20T13:43:22.135Z,8.63
2022-11-20T13:46:04.753Z,7.47
2022-11-20T13:48:35.838Z,9.00
2022-11-20T13:51:25.904Z,7.93
2022-11-20T13:54:39.245Z,8.40
2022-11-20T13:57:31.720Z,9.68
2022-11-20T14:00:20.147Z,9.45
2022-11-20T14:03:18.572Z,10.25
2022-11-20T14:05:56.233Z,8.95
2022-11-20T14:08:33.649Z,9.25
2022-11-20T14:11:15.969Z,9.07
2022-11-20T14:14:15.081Z,8.73
2022-11-20T14:16:42.118Z,8.90
2022-11-20T14:19:20.928Z,8.10
2022-11-20T14:22:08.522Z,8.98
2022-11-20T14:24:35.925Z,9.90
2022-11-20T14:27:03.335Z,9.02
2022-11-20T14:29:36.060Z,9.18
2022-11-20T14:32:04.790Z,8.75
2022-11-20T14:34:41.428Z,9.00
2022-11-20T14:37:17.074Z,8.75
2022-11-20T14:39:59.923Z,8.65
2022-11-20T14:42:29.474Z,8.70
2022-11-20T14:45:00.924Z,8.40
2022-11-20T14:47:32.596Z,9.07
2022-11-20T14:50:00.020Z,7.43
2022-11-20T14:52:28.617Z,9.82
2022-11-20T14:55:01.751Z,8.52
2022-11-20T14:57:32.066Z,8.70
2022-11-20T15:00:14.209Z,8.82
2022-11-20T15:02:47.653Z,9.05
2022-11-20T15:05:16.752Z,10.40
2022-11-20T15:08:05.899Z,9.43
2022-11-20T15:10:33.059Z,9.60
2022-11-20T15:13:12.998Z,9.88
2022-11-20T15:15:54.497Z,11.35
2022-11-20T15:18:40.002Z,12.30
2022-11-20T15:21:14.158Z,12.32
2022-11-20T15:23:41.008Z,11.07
2022-11-20T15:26:19.490Z,11.45
2022-11-20T15:28:49.751Z,10.82
2022-11-20T15:31:23.900Z,13.15
2022-11-20T15:33:51.128Z,12.27
2022-11-20T15:36:18.138Z,13.25
2022-11-20T15:38:44.947Z,14.60
2022-11-20T15:41:12.343Z,14.85
2022-11-20T15:43:39.671Z,15.75
2022-11-20T15:46:12.747Z,15.68
2022-11-20T15:48:48.170Z,14.50
2022-11-20T15:51:28.556Z,15.40
2022-11-20T15:53:56.913Z,16.20
2022-11-20T15:56:24.794Z,15.48
2022-11-20T15:58:51.720Z,16.05
2022-11-20T16:01:22.353Z,17.55
2022-11-20T16:03:49.664Z,16.85
2022-11-20T16:06:19.401Z,15.98
2022-11-20T16:08:46.379Z,15.05
2022-11-20T16:11:18.066Z,15.18
2022-11-20T16:14:04.314Z,16.23
2022-11-20T16:16:33.984Z,16.80
2022-11-20T16:19:01.207Z,15.05
2022-11-20T16:21:32.102Z,16.65
2022-11-20T16:24:16.924Z,16.35
2022-11-20T16:26:44.307Z,14.23
2022-11-20T16:29:11.384Z,13.20
2022-11-20T16:31:38.980Z,12.30
2022-11-20T16:34:12.377Z,12.15
2022-11-20T16:36:46.392Z,11.93
2022-11-20T16:39:21.912Z,11.48
2022-11-20T16:41:50.539Z,12.20
2022-11-20T16:44:17.443Z,12.55
2022-11-20T16:46:44.543Z,12.90
2022-11-20T16:49:16.346Z,12.65
2022-11-20T16:51:44.997Z,13.02
2022-11-20T16:54:16.332Z,13.10
2022-11-20T16:56:48.505Z,12.80
2022-11-20T16:59:16.031Z,13.18
2022-11-20T17:01:44.589Z,12.40
2022-11-20T17:04:11.502Z,12.50
2022-11-20T17:06:44.632Z,12.93
2022-11-20T17:09:11.547Z,13.40
2022-11-20T17:11:38.668Z,14.27
2022-11-20T17:14:09.134Z,14.40
2022-11-20T17:16:37.255Z,15.43
2022-11-20T17:19:05.375Z,14.23
2022-11-20T17:21:35.974Z,15.57
2022-11-20T17:24:12.192Z,15.43
2022-11-20T17:26:41.583Z,14.40
2022-11-20T17:29:14.917Z,15.85
2022-11-20T17:31:43.618Z,18.65
2022-11-20T17:34:16.014Z,16.58
2022-11-20T17:36:46.579Z,17.50
2022-11-20T17:39:17.496Z,17.35
2022-11-20T17:41:44.681Z,19.30
2022-11-20T17:44:12.714Z,17.92
2022-11-20T17:46:40.108Z,18.80
2022-11-20T17:49:07.465Z,19.10
2022-11-20T17:51:35.200Z,20.63
2022-11-20T17:54:07.363Z,20.95
2022-11-20T17:56:54.041Z,20.60
2022-11-20T17:59:21.375Z,18.45
2022-11-20T18:01:48.597Z,20.13
2022-11-20T18:04:16.624Z,21.08
2022-11-20T18:06:43.733Z,20.20
2022-11-20T18:09:11.088Z,21.70
2022-11-20T18:11:41.673Z,20.10
2022-11-20T18:14:28.806Z,20.88
2022-11-20T18:17:00.866Z,21.95
2022-11-20T18:19:32.912Z,25.40
2022-11-20T18:22:01.784Z,23.85
2022-11-20T18:24:28.870Z,21.15
2022-11-20T18:26:57.541Z,19.55
2022-11-20T18:29:25.770Z,19.40
2022-11-20T18:31:53.369Z,19.88
2022-11-20T18:34:20.232Z,20.50
2022-11-20T18:36:47.058Z,22.52
2022-11-20T18:39:14.644Z,22.00
2022-11-20T18:42:01.132Z,21.70
2022-11-20T18:44:49.210Z,22.63
2022-11-20T18:47:25.766Z,25.15
2022-11-20T18:49:54.979Z,25.40
2022-11-20T18:52:26.439Z,24.10
2022-11-20T18:54:54.648Z,22.20
2022-11-20T18:57:28.080Z,22.83
2022-11-20T18:59:56.088Z,17.70
2022-11-20T19:02:23.451Z,19.55
2022-11-20T19:04:50.271Z,20.23
2022-11-20T19:07:18.055Z,17.63
2022-11-20T19:09:52.495Z,19.38
2022-11-20T19:12:20.390Z,18.58
2022-11-20T19:14:47.749Z,18.77
2022-11-20T19:17:14.648Z,16.83
2022-11-20T19:19:41.571Z,15.40
2022-11-20T19:22:09.301Z,16.50
2022-11-20T19:24:36.099Z,15.85
2022-11-20T19:27:02.971Z,14.88
2022-11-20T19:29:29.896Z,15.52
2022-11-20T19:31:58.733Z,14.35
2022-11-20T19:34:26.041Z,15.55
2022-11-20T19:36:53.101Z,16.77
2022-11-20T19:39:19.885Z,21.73
2022-11-20T19:41:46.653Z,18.75
2022-11-20T19:44:16.023Z,18.25
2022-11-20T19:46:43.393Z,18.77
2022-11-20T19:49:13.819Z,16.48
2022-11-20T19:51:46.675Z,16.95
2022-11-20T19:54:13.910Z,16.60
2022-11-20T19:56:40.876Z,14.93
2022-11-20T19:59:07.659Z,15.90
2022-11-20T20:01:35.285Z,15.88
2022-11-20T20:04:03.502Z,15.65
2022-11-20T20:06:31.780Z,15.68
2022-11-20T20:09:04.921Z,14.57
2022-11-20T20:11:34.122Z,16.00
2022-11-20T20:14:03.302Z,14.10
2022-11-20T20:16:30.173Z,14.82
2022-11-20T20:19:02.716Z,15.02
2022-11-20T20:21:30.977Z,15.35
2022-11-20T20:23:58.783Z,15.55
2022-11-20T20:26:29.417Z,16.27
2022-11-20T20:28:56.303Z,16.80
2022-11-20T20:31:26.464Z,16.40
2022-11-20T20:33:53.315Z,16.10
2022-11-20T20:36:22.017Z,15.68
2022-11-20T20:38:53.246Z,16.63
2022-11-20T20:41:22.265Z,15.95
2022-11-20T20:44:07.593Z,15.48
2022-11-20T20:46:34.580Z,13.32
2022-11-20T20:49:01.458Z,16.20
2022-11-20T20:51:28.382Z,17.08
2022-11-20T20:53:55.192Z,16.10
2022-11-20T20:56:22.088Z,16.15
2022-11-20T20:58:48.867Z,16.65
2022-11-20T21:01:18.415Z,17.10
2022-11-20T21:03:45.576Z,16.92
2022-11-20T21:06:13.469Z,17.90
2022-11-20T21:08:42.165Z,16.67
2022-11-20T21:11:15.180Z,16.35
2022-11-20T21:13:44.156Z,16.48
2022-11-20T21:16:12.669Z,15.52
2022-11-20T21:18:39.597Z,15.15
2022-11-20T21:21:26.829Z,14.93
2022-11-20T21:23:53.813Z,15.27
2022-11-20T21:26:21.539Z,14.63
2022-11-20T21:28:49.782Z,16.02
2022-11-20T21:31:22.437Z,17.13
2022-11-20T21:33:51.480Z,16.95
2022-11-20T21:36:22.019Z,16.45
2022-11-20T21:38:51.144Z,17.25
2022-11-20T21:41:18.141Z,16.52
2022-11-20T21:43:45.012Z,16.67
2022-11-20T21:46:15.030Z,18.52
2022-11-20T21:48:44.585Z,16.77
2022-11-20T21:51:20.085Z,16.73
2022-11-20T21:53:48.482Z,16.35
2022-11-20T21:56:20.609Z,14.75
2022-11-20T21:58:48.341Z,15.10
2022-11-20T22:01:19.090Z,16.52
2022-11-20T22:03:52.123Z,15.13
2022-11-20T22:06:20.695Z,16.10
2022-11-20T22:08:48.868Z,15.93
2022-11-20T22:11:19.183Z,15.85
2022-11-20T22:14:06.031Z,15.90
2022-11-20T22:16:37.237Z,15.40
2022-11-20T22:19:05.584Z,15.77
2022-11-20T22:21:33.496Z,15.20
2022-11-20T22:24:00.941Z,15.63
2022-11-20T22:26:34.976Z,15.90
2022-11-20T22:29:05.662Z,15.77
2022-11-20T22:31:32.968Z,15.50
2022-11-20T22:34:02.266Z,16.73
2022-11-20T22:36:31.164Z,16.48
2022-11-20T22:38:58.708Z,17.48
2022-11-20T22:41:29.670Z,14.20
2022-11-20T22:43:59.619Z,16.67
2022-11-20T22:46:28.630Z,17.00
2022-11-20T22:48:58.483Z,17.13
2022-11-20T22:51:29.098Z,19.23
2022-11-20T22:53:56.231Z,19.63
2022-11-20T22:56:23.357Z,18.15
2022-11-20T22:58:52.050Z,15.75
2022-11-20T23:01:30.521Z,16.83
2022-11-20T23:04:00.915Z,16.45
2022-11-20T23:06:28.473Z,16.67
2022-11-20T23:08:55.788Z,15.75
2022-11-20T23:11:26.056Z,17.02
2022-11-20T23:14:01.875Z,16.52
2022-11-20T23:16:30.456Z,15.18
2022-11-20T23:19:01.464Z,15.70
2022-11-20T23:21:28.702Z,16.58
2022-11-20T23:23:57.794Z,15.40
2022-11-20T23:26:28.357Z,15.05
2022-11-20T23:28:57.619Z,14.65
2022-11-20T23:31:25.955Z,15.35
2022-11-20T23:33:53.040Z,15.40
2022-11-20T23:36:19.937Z,16.98
2022-11-20T23:38:47.081Z,15.50
2022-11-20T23:41:14.185Z,15.75
2022-11-20T23:43:40.940Z,16.58
2022-11-20T23:46:08.047Z,16.00
2022-11-20T23:48:38.668Z,17.23
2022-11-20T23:51:07.028Z,16.25
2022-11-20T23:53:34.545Z,16.92
2022-11-20T23:56:04.686Z,17.10
2022-11-20T23:58:35.350Z,16.92
